Time;durP1;ratioP1;P1;durP2;ratioP2;P2;SDS_P1;SDS_P2;PMS_P1;PMS_P2;Temp;Humidity;BMP_temperature;BMP_pressure;BME280_temperature;BME280_humidity;BME280_pressure;Samples;Min_cycle;Max_cycle;Signal;HPM_P1;HPM_P2
2021/09/20 00:01:49;;;;;;;9.07;6.38;;;27.80;99.90;;;;;;4194447;28;20049;-68
2021/09/20 00:03:54;;;;;;;7.15;5.82;;;27.80;99.90;;;;;;4194810;28;20068;-68
2021/09/20 00:05:59;;;;;;;10.68;5.60;;;27.70;99.90;;;;;;4195810;28;20474;-67
2021/09/20 00:08:04;;;;;;;9.85;5.65;;;27.70;99.90;;;;;;4196244;28;20051;-67
2021/09/20 00:10:10;;;;;;;14.68;6.22;;;27.80;99.90;;;;;;4194952;28;20154;-68
2021/09/20 00:12:14;;;;;;;8.18;5.90;;;28.00;99.90;;;;;;4194674;28;20080;-67
2021/09/20 00:14:19;;;;;;;12.88;6.10;;;28.00;99.90;;;;;;4196392;28;20052;-68
2021/09/20 00:16:23;;;;;;;9.30;6.07;;;28.10;99.90;;;;;;4211254;28;20062;-67
2021/09/20 00:18:28;;;;;;;10.40;6.40;;;27.90;99.90;;;;;;4194230;28;20592;-68
2021/09/20 00:20:33;;;;;;;9.07;6.13;;;27.80;99.90;;;;;;4178782;28;20076;-68
2021/09/20 00:22:41;;;;;;;12.32;6.03;;;27.80;99.90;;;;;;4194099;28;20093;-68
2021/09/20 00:24:45;;;;;;;10.50;6.05;;;27.80;99.90;;;;;;4194430;28;20064;-68
2021/09/20 00:26:50;;;;;;;9.20;5.82;;;27.90;99.90;;;;;;4195421;28;20048;-67
2021/09/20 00:28:54;;;;;;;14.05;5.90;;;27.80;99.90;;;;;;4195465;28;20064;-71
2021/09/20 00:30:59;;;;;;;10.82;6.18;;;27.80;99.90;;;;;;4190441;28;20048;-68
2021/09/20 00:33:03;;;;;;;9.68;5.53;;;27.80;99.90;;;;;;4188979;28;20045;-68
2021/09/20 00:35:08;;;;;;;12.52;6.07;;;27.90;99.90;;;;;;4174350;28;20083;-67
2021/09/20 00:37:13;;;;;;;8.07;5.57;;;27.90;99.90;;;;;;4192757;28;20437;-67
2021/09/20 00:39:17;;;;;;;11.68;5.55;;;27.90;99.90;;;;;;4191159;28;20043;-67
2021/09/20 00:41:22;;;;;;;9.00;5.97;;;27.90;99.90;;;;;;4195030;28;20091;-67
2021/09/20 00:43:26;;;;;;;7.20;5.43;;;28.10;99.90;;;;;;4194582;28;20032;-67
2021/09/20 00:45:31;;;;;;;11.07;5.65;;;28.20;99.90;;;;;;4194020;28;20137;-66
2021/09/20 00:47:35;;;;;;;8.70;5.70;;;28.40;99.90;;;;;;4195302;28;20049;-68
2021/09/20 00:49:40;;;;;;;9.32;5.88;;;28.50;99.90;;;;;;4198190;28;20051;-68
2021/09/20 00:51:45;;;;;;;8.20;5.47;;;28.60;99.90;;;;;;4196706;28;20050;-68
2021/09/20 00:53:49;;;;;;;7.00;5.40;;;28.70;99.90;;;;;;4180313;28;20041;-67
2021/09/20 00:55:54;;;;;;;8.30;6.40;;;28.70;99.90;;;;;;4196411;28;20416;-66
2021/09/20 00:57:58;;;;;;;11.23;5.72;;;28.70;99.90;;;;;;4180293;28;20049;-67
2021/09/20 01:00:03;;;;;;;10.68;5.60;;;28.80;99.90;;;;;;4179613;28;20087;-67
2021/09/20 01:02:08;;;;;;;9.13;5.97;;;28.70;99.90;;;;;;4196591;28;20042;-67
2021/09/20 01:04:17;;;;;;;9.80;5.85;;;28.70;99.90;;;;;;4179537;28;20124;-67
2021/09/20 01:06:22;;;;;;;8.45;5.70;;;28.80;99.90;;;;;;4195938;28;20044;-67
2021/09/20 01:08:27;;;;;;;9.82;5.85;;;28.90;99.90;;;;;;4194789;28;20053;-67
2021/09/20 01:10:31;;;;;;;8.90;6.47;;;29.00;99.90;;;;;;4196319;28;20052;-68
2021/09/20 01:12:37;;;;;;;10.13;6.40;;;28.80;99.90;;;;;;4180064;28;20041;-68
2021/09/20 01:14:42;;;;;;;14.75;6.18;;;28.90;99.90;;;;;;4186257;28;20059;-69
2021/09/20 01:16:47;;;;;;;10.35;5.70;;;29.00;99.90;;;;;;4187145;28;20051;-67
2021/09/20 01:18:52;;;;;;;14.63;6.05;;;28.90;99.90;;;;;;4196375;28;20563;-68
2021/09/20 01:20:57;;;;;;;14.70;7.13;;;28.90;99.90;;;;;;4197201;28;20078;-67
2021/09/20 01:23:03;;;;;;;9.80;6.38;;;29.00;99.90;;;;;;4194008;28;20071;-68
2021/09/20 01:25:09;;;;;;;10.15;5.35;;;29.10;99.90;;;;;;4193547;28;20114;-68
2021/09/20 01:27:18;;;;;;;10.38;6.55;;;29.20;99.90;;;;;;4195216;28;20068;-68
2021/09/20 01:29:24;;;;;;;8.45;5.03;;;29.20;99.90;;;;;;4178228;28;20048;-67
2021/09/20 01:31:29;;;;;;;9.60;5.10;;;29.40;99.90;;;;;;4194660;28;20036;-68
2021/09/20 01:33:34;;;;;;;8.55;5.20;;;29.50;99.90;;;;;;4190301;28;20040;-69
2021/09/20 01:35:38;;;;;;;5.60;4.38;;;29.60;99.90;;;;;;4194963;28;20071;-68
2021/09/20 01:37:44;;;;;;;7.68;4.38;;;29.60;99.90;;;;;;4196222;28;20072;-68
2021/09/20 01:39:48;;;;;;;5.78;4.43;;;29.60;99.90;;;;;;4193345;28;20040;-69
2021/09/20 01:41:53;;;;;;;8.25;4.72;;;29.50;99.90;;;;;;4146708;28;20065;-68
2021/09/20 01:43:58;;;;;;;10.30;4.43;;;29.50;99.90;;;;;;4194748;28;20072;-67
2021/09/20 01:46:03;;;;;;;6.28;4.40;;;29.60;99.90;;;;;;4196046;28;20044;-68
2021/09/20 01:48:08;;;;;;;9.75;4.55;;;29.70;99.90;;;;;;4194310;28;20037;-68
2021/09/20 01:50:14;;;;;;;9.95;4.70;;;29.80;99.90;;;;;;4194395;28;20040;-68
2021/09/20 01:52:24;;;;;;;7.90;4.63;;;30.00;99.90;;;;;;4192082;28;20400;-67
2021/09/20 01:54:30;;;;;;;8.32;4.75;;;30.00;99.90;;;;;;4195239;28;20098;-68
2021/09/20 01:56:36;;;;;;;5.50;4.28;;;30.00;99.90;;;;;;4194451;28;20040;-68
2021/09/20 01:58:40;;;;;;;6.85;4.53;;;30.10;99.90;;;;;;4191617;28;20127;-67
2021/09/20 02:00:47;;;;;;;8.00;4.68;;;30.10;99.90;;;;;;4192602;28;20503;-68
2021/09/20 02:02:52;;;;;;;6.70;4.78;;;30.20;99.90;;;;;;4194154;28;20036;-68
2021/09/20 02:04:57;;;;;;;6.20;4.57;;;30.20;99.90;;;;;;4194640;28;20064;-68
2021/09/20 02:07:03;;;;;;;7.25;4.30;;;30.30;99.90;;;;;;4195705;28;20140;-68
2021/09/20 02:09:12;;;;;;;7.50;4.80;;;30.30;99.90;;;;;;4194579;28;20047;-67
2021/09/20 02:11:17;;;;;;;5.50;4.22;;;30.40;99.90;;;;;;4195065;28;20099;-68
2021/09/20 02:13:26;;;;;;;5.65;4.70;;;30.40;99.90;;;;;;4195681;28;20518;-67
2021/09/20 02:15:31;;;;;;;5.97;4.38;;;30.40;99.90;;;;;;4194314;28;20048;-68
2021/09/20 02:17:36;;;;;;;6.57;4.78;;;30.50;99.90;;;;;;4197017;28;20071;-68
2021/09/20 02:19:43;;;;;;;6.78;4.47;;;30.50;99.90;;;;;;4163886;28;20053;-68
2021/09/20 02:21:49;;;;;;;7.30;4.35;;;30.50;99.90;;;;;;4194329;28;20292;-69
2021/09/20 02:23:54;;;;;;;7.25;4.97;;;30.50;99.90;;;;;;4196167;28;20033;-68
2021/09/20 02:26:00;;;;;;;5.57;4.30;;;30.60;99.90;;;;;;4196670;28;20050;-69
2021/09/20 02:28:04;;;;;;;6.28;4.63;;;30.50;99.90;;;;;;4195160;28;20483;-68
2021/09/20 02:30:10;;;;;;;5.88;4.10;;;30.50;99.90;;;;;;4195339;28;20041;-66
2021/09/20 02:32:15;;;;;;;7.85;4.75;;;30.40;99.90;;;;;;4195492;28;20040;-68
2021/09/20 02:34:20;;;;;;;8.80;5.10;;;30.50;99.90;;;;;;4196693;28;20573;-68
2021/09/20 02:36:25;;;;;;;6.68;4.70;;;30.50;99.90;;;;;;4195245;28;20105;-68
2021/09/20 02:38:29;;;;;;;9.18;4.70;;;30.60;99.90;;;;;;4195747;28;20048;-68
2021/09/20 02:40:33;;;;;;;5.20;4.43;;;30.60;99.90;;;;;;4195634;28;20157;-69
2021/09/20 02:42:37;;;;;;;10.98;4.93;;;30.60;99.90;;;;;;4195324;28;20041;-68
2021/09/20 02:44:42;;;;;;;9.18;4.80;;;30.60;99.90;;;;;;4194743;28;20037;-67
2021/09/20 02:46:48;;;;;;;5.40;4.63;;;30.70;99.90;;;;;;4196115;28;20452;-68
2021/09/20 02:48:53;;;;;;;6.07;3.95;;;30.80;99.90;;;;;;4194656;28;20052;-69
2021/09/20 02:50:57;;;;;;;6.97;4.00;;;30.80;99.90;;;;;;4194735;28;20581;-68
2021/09/20 02:53:03;;;;;;;5.53;4.15;;;30.90;99.90;;;;;;4195246;28;20056;-69
2021/09/20 02:55:08;;;;;;;6.43;4.45;;;31.00;99.90;;;;;;4178520;28;20064;-69
2021/09/20 02:57:16;;;;;;;5.05;4.25;;;31.20;99.90;;;;;;4194375;28;20249;-69
2021/09/20 02:59:21;;;;;;;8.13;4.20;;;31.30;99.90;;;;;;4194812;28;20051;-69
2021/09/20 03:01:25;;;;;;;5.80;4.32;;;31.30;99.90;;;;;;4194411;28;20170;-69
2021/09/20 03:03:32;;;;;;;4.40;3.85;;;31.30;99.90;;;;;;4192875;28;20048;-68
2021/09/20 03:05:38;;;;;;;7.80;4.32;;;31.20;99.90;;;;;;4178797;28;20037;-69
2021/09/20 03:07:42;;;;;;;5.25;3.90;;;31.20;99.90;;;;;;4194307;28;20485;-68
2021/09/20 03:09:46;;;;;;;7.30;3.88;;;31.30;99.90;;;;;;4195956;28;20040;-68
2021/09/20 03:11:54;;;;;;;5.18;3.85;;;31.40;99.90;;;;;;4176417;28;20040;-69
2021/09/20 03:13:59;;;;;;;4.95;3.90;;;31.60;99.90;;;;;;4194666;28;20040;-68
2021/09/20 03:16:06;;;;;;;4.85;4.20;;;31.60;99.90;;;;;;4194519;28;20035;-68
2021/09/20 03:18:11;;;;;;;4.75;4.25;;;31.60;99.90;;;;;;4176429;28;20041;-68
2021/09/20 03:20:15;;;;;;;5.93;3.80;;;31.70;99.90;;;;;;4195215;28;20131;-68
2021/09/20 03:22:20;;;;;;;4.63;3.65;;;31.70;99.90;;;;;;4195793;28;20400;-68
2021/09/20 03:24:25;;;;;;;4.90;3.53;;;31.70;99.90;;;;;;4195710;28;20040;-68
2021/09/20 03:26:30;;;;;;;5.60;3.92;;;31.60;99.90;;;;;;4192898;28;20438;-68
2021/09/20 03:28:35;;;;;;;6.72;3.65;;;31.70;99.90;;;;;;4194341;28;20048;-69
2021/09/20 03:30:40;;;;;;;4.30;3.72;;;31.70;99.90;;;;;;4194176;28;20086;-69
2021/09/20 03:32:45;;;;;;;4.80;3.92;;;31.70;99.90;;;;;;4192357;28;20126;-68
2021/09/20 03:34:50;;;;;;;5.10;3.97;;;31.80;99.90;;;;;;4178113;28;20522;-69
2021/09/20 03:36:55;;;;;;;5.60;3.63;;;31.80;99.90;;;;;;4193333;28;20102;-69
2021/09/20 03:39:00;;;;;;;5.05;3.88;;;31.80;99.90;;;;;;4195772;28;20087;-69
2021/09/20 03:41:04;;;;;;;4.35;3.30;;;31.80;99.90;;;;;;4195466;28;20044;-69
2021/09/20 03:43:09;;;;;;;4.28;3.88;;;31.80;99.90;;;;;;4193226;28;20056;-69
2021/09/20 03:45:13;;;;;;;5.57;3.60;;;31.90;99.90;;;;;;4193849;28;20133;-69
2021/09/20 03:47:18;;;;;;;3.58;3.28;;;31.90;99.90;;;;;;4186615;28;20044;-69
2021/09/20 03:49:23;;;;;;;4.78;3.05;;;32.00;99.90;;;;;;4193539;28;20036;-69
2021/09/20 03:51:28;;;;;;;4.03;3.00;;;32.00;99.90;;;;;;4195319;28;20087;-69
2021/09/20 03:53:33;;;;;;;4.47;3.22;;;32.00;99.90;;;;;;4182658;28;20526;-69
2021/09/20 03:55:43;;;;;;;5.75;4.10;;;32.10;99.90;;;;;;4192896;28;20457;-69
2021/09/20 03:57:48;;;;;;;3.70;3.40;;;32.30;99.90;;;;;;4196050;28;20056;-69
2021/09/20 03:59:52;;;;;;;4.30;3.55;;;32.40;99.90;;;;;;4193539;28;20045;-69
2021/09/20 04:01:57;;;;;;;4.00;3.55;;;32.40;99.90;;;;;;4168924;28;20071;-69
2021/09/20 04:04:03;;;;;;;4.85;3.83;;;32.50;99.90;;;;;;4194190;28;20037;-69
2021/09/20 04:06:07;;;;;;;5.47;3.65;;;32.40;99.90;;;;;;4176344;28;20571;-69
2021/09/20 04:08:15;;;;;;;6.50;3.95;;;32.40;99.90;;;;;;4192211;28;20044;-68
2021/09/20 04:10:19;;;;;;;4.10;3.70;;;32.40;99.90;;;;;;4161761;28;20124;-68
2021/09/20 04:12:24;;;;;;;5.32;3.35;;;32.50;99.90;;;;;;4191548;28;20514;-68
2021/09/20 04:14:28;;;;;;;4.43;3.40;;;32.70;99.90;;;;;;4193399;28;20495;-69
2021/09/20 04:16:33;;;;;;;5.35;3.65;;;32.70;99.90;;;;;;4195720;28;20049;-68
2021/09/20 04:18:37;;;;;;;4.63;3.58;;;32.70;99.90;;;;;;4195376;28;20502;-69
2021/09/20 04:20:42;;;;;;;5.93;3.72;;;32.60;99.90;;;;;;4194793;28;20067;-68
2021/09/20 04:22:46;;;;;;;4.82;3.60;;;32.50;99.90;;;;;;4195731;28;20493;-67
2021/09/20 04:24:51;;;;;;;4.00;3.40;;;32.50;99.90;;;;;;4196646;28;20484;-67
2021/09/20 04:26:55;;;;;;;5.90;3.28;;;32.60;99.90;;;;;;4195614;28;20132;-68
2021/09/20 04:29:00;;;;;;;5.45;2.83;;;32.60;99.90;;;;;;4196376;28;20048;-68
2021/09/20 04:31:05;;;;;;;3.38;3.08;;;32.60;99.90;;;;;;4192916;28;20117;-68
2021/09/20 04:33:14;;;;;;;5.97;2.92;;;32.60;99.90;;;;;;4197968;28;20052;-68
2021/09/20 04:35:19;;;;;;;4.07;2.92;;;32.50;99.60;;;;;;4193563;28;20494;-67
2021/09/20 04:37:24;;;;;;;3.70;3.30;;;32.50;99.90;;;;;;4195097;28;20048;-68
2021/09/20 04:39:29;;;;;;;5.68;2.95;;;32.50;99.90;;;;;;4196943;28;20048;-69
2021/09/20 04:41:33;;;;;;;5.03;3.38;;;32.40;99.90;;;;;;4191410;28;20053;-67
2021/09/20 04:43:38;;;;;;;5.60;3.20;;;32.40;99.90;;;;;;4194322;28;20041;-68
2021/09/20 04:45:43;;;;;;;7.40;3.95;;;32.50;99.90;;;;;;4193951;28;20048;-68
2021/09/20 04:47:48;;;;;;;9.88;6.43;;;32.50;99.90;;;;;;4196410;28;20115;-68
2021/09/20 04:49:53;;;;;;;10.75;6.25;;;32.60;99.90;;;;;;4197177;28;20048;-70
2021/09/20 04:51:58;;;;;;;7.55;5.40;;;32.60;99.90;;;;;;4197492;28;20498;-69
2021/09/20 04:54:03;;;;;;;4.38;3.42;;;32.70;99.90;;;;;;4197828;28;20060;-68
2021/09/20 04:56:09;;;;;;;4.57;3.58;;;32.80;99.30;;;;;;4197701;28;20051;-68
2021/09/20 04:58:15;;;;;;;3.88;3.35;;;32.80;99.90;;;;;;4197018;28;20041;-68
2021/09/20 05:00:19;;;;;;;6.40;3.67;;;32.80;99.90;;;;;;4197955;28;20060;-68
2021/09/20 05:02:24;;;;;;;6.60;3.53;;;32.80;99.40;;;;;;4180224;28;20466;-68
2021/09/20 05:04:29;;;;;;;6.40;3.60;;;32.80;99.40;;;;;;4190288;28;20154;-68
2021/09/20 05:06:34;;;;;;;4.53;3.60;;;32.90;99.70;;;;;;4198456;28;20053;-68
2021/09/20 05:08:39;;;;;;;4.03;3.30;;;32.90;99.70;;;;;;4195201;28;20048;-68
2021/09/20 05:10:46;;;;;;;3.45;3.13;;;32.90;99.50;;;;;;4197409;28;20522;-68
2021/09/20 05:12:50;;;;;;;5.75;3.90;;;33.00;99.60;;;;;;4197866;28;20049;-68
2021/09/20 05:14:54;;;;;;;4.10;3.60;;;32.90;99.90;;;;;;4180223;28;20092;-68
2021/09/20 05:17:03;;;;;;;7.65;3.70;;;33.00;99.90;;;;;;4197092;28;20098;-69
2021/09/20 05:19:08;;;;;;;5.53;3.90;;;33.00;99.10;;;;;;4198003;28;20044;-69
2021/09/20 05:21:13;;;;;;;5.90;3.90;;;32.90;98.10;;;;;;4197639;28;20522;-69
2021/09/20 05:23:18;;;;;;;4.88;3.28;;;32.90;98.60;;;;;;4187148;28;20481;-69
2021/09/20 05:25:23;;;;;;;5.53;3.75;;;32.90;98.50;;;;;;4188866;28;20044;-69
2021/09/20 05:27:28;;;;;;;3.60;3.30;;;32.90;98.90;;;;;;4193402;28;20048;-68
2021/09/20 05:29:33;;;;;;;3.90;3.15;;;33.00;99.10;;;;;;4181733;28;20049;-69
2021/09/20 05:31:38;;;;;;;3.97;2.92;;;33.10;98.90;;;;;;4186938;28;20043;-68
2021/09/20 05:33:42;;;;;;;3.15;2.50;;;33.20;98.60;;;;;;4197790;28;20057;-67
2021/09/20 05:35:47;;;;;;;2.50;2.30;;;33.20;97.50;;;;;;4196866;28;20163;-68
2021/09/20 05:37:53;;;;;;;4.25;2.60;;;33.10;97.40;;;;;;4197498;28;20533;-68
2021/09/20 05:39:57;;;;;;;5.15;2.80;;;33.20;97.20;;;;;;4196982;28;20131;-69
2021/09/20 05:42:02;;;;;;;4.47;2.67;;;33.20;97.10;;;;;;4198329;28;20053;-68
2021/09/20 05:44:08;;;;;;;3.40;2.35;;;33.30;96.90;;;;;;4180305;28;20061;-68
2021/09/20 05:46:12;;;;;;;3.65;2.60;;;33.20;96.80;;;;;;4196503;28;20049;-69
2021/09/20 05:48:19;;;;;;;2.80;2.50;;;33.30;97.00;;;;;;4197810;28;20368;-69
2021/09/20 05:50:24;;;;;;;4.20;2.88;;;33.10;96.50;;;;;;4194166;28;20147;-68
2021/09/20 05:52:29;;;;;;;9.23;8.23;;;33.10;96.70;;;;;;4195298;28;20569;-69
2021/09/20 05:54:34;;;;;;;5.25;4.32;;;33.20;97.10;;;;;;4197458;28;20041;-69
2021/09/20 05:56:38;;;;;;;5.88;4.50;;;33.30;96.60;;;;;;4195945;28;20503;-69
2021/09/20 05:58:43;;;;;;;3.95;3.55;;;33.40;96.80;;;;;;4195308;28;20049;-69
2021/09/20 06:00:48;;;;;;;4.22;2.80;;;33.50;96.20;;;;;;4196637;28;20048;-69
2021/09/20 06:02:53;;;;;;;4.30;2.65;;;33.60;96.10;;;;;;4197665;28;20045;-68
2021/09/20 06:04:58;;;;;;;3.92;2.60;;;33.70;96.10;;;;;;4196484;28;20074;-69
2021/09/20 06:07:03;;;;;;;5.03;2.60;;;33.80;96.00;;;;;;4179693;28;20044;-68
2021/09/20 06:09:08;;;;;;;2.85;2.40;;;33.80;95.30;;;;;;4195126;28;20094;-68
2021/09/20 06:11:14;;;;;;;4.22;2.20;;;33.80;95.00;;;;;;4197903;28;20052;-69
2021/09/20 06:13:19;;;;;;;4.28;2.70;;;33.90;94.70;;;;;;4197483;28;20411;-68
2021/09/20 06:15:23;;;;;;;4.95;2.80;;;33.90;95.10;;;;;;4197398;28;20135;-68
2021/09/20 06:17:28;;;;;;;4.07;2.83;;;33.90;94.80;;;;;;4196082;28;20472;-68
2021/09/20 06:19:33;;;;;;;5.13;2.63;;;33.90;94.70;;;;;;4196459;28;20457;-69
2021/09/20 06:21:37;;;;;;;2.85;2.38;;;33.90;94.50;;;;;;4163796;28;20053;-68
2021/09/20 06:23:41;;;;;;;2.47;2.20;;;33.90;94.00;;;;;;4196072;28;20056;-68
2021/09/20 06:25:46;;;;;;;3.75;2.67;;;33.90;93.30;;;;;;4179863;28;20527;-69
2021/09/20 06:27:51;;;;;;;3.60;2.55;;;34.00;93.40;;;;;;4188302;28;20135;-69
2021/09/20 06:29:56;;;;;;;3.80;2.40;;;34.10;93.40;;;;;;4196425;28;20405;-68
2021/09/20 06:32:01;;;;;;;3.10;2.47;;;34.00;93.00;;;;;;4197815;28;20053;-67
2021/09/20 06:34:05;;;;;;;3.50;2.25;;;34.00;93.00;;;;;;4197183;28;20477;-67
2021/09/20 06:36:10;;;;;;;3.40;2.20;;;34.00;93.40;;;;;;4196140;28;20540;-68
2021/09/20 06:38:15;;;;;;;2.63;2.25;;;34.00;93.20;;;;;;4195306;28;20520;-69
2021/09/20 06:40:19;;;;;;;3.88;2.40;;;34.00;93.50;;;;;;4197415;28;20066;-68
2021/09/20 06:42:24;;;;;;;3.58;2.80;;;33.90;93.40;;;;;;4195900;28;20051;-67
2021/09/20 06:44:29;;;;;;;3.58;2.42;;;33.90;93.20;;;;;;4194965;28;20573;-68
2021/09/20 06:46:37;;;;;;;6.25;3.42;;;34.00;93.40;;;;;;4181718;28;20531;-68
2021/09/20 06:48:42;;;;;;;4.50;2.90;;;34.00;93.90;;;;;;4195259;28;20120;-68
2021/09/20 06:50:47;;;;;;;4.25;3.00;;;34.00;93.50;;;;;;4196081;28;20051;-68
2021/09/20 06:52:51;;;;;;;4.32;3.05;;;34.00;93.70;;;;;;4195874;28;20122;-68
2021/09/20 06:54:55;;;;;;;4.13;2.80;;;34.00;93.20;;;;;;4196228;28;20083;-68
2021/09/20 06:57:00;;;;;;;3.63;2.40;;;33.70;92.80;;;;;;4195911;28;20106;-68
2021/09/20 06:59:05;;;;;;;3.75;2.80;;;33.80;93.30;;;;;;4195028;28;20538;-68
2021/09/20 07:01:09;;;;;;;3.70;2.65;;;33.90;93.70;;;;;;4191119;28;20075;-68
2021/09/20 07:03:14;;;;;;;4.13;2.70;;;33.90;93.10;;;;;;4196803;28;20100;-68
2021/09/20 07:05:18;;;;;;;4.93;3.28;;;33.90;92.70;;;;;;4197202;28;20098;-68
2021/09/20 07:07:23;;;;;;;4.32;2.45;;;33.80;92.60;;;;;;4147172;28;20041;-68
2021/09/20 07:09:27;;;;;;;3.53;2.95;;;33.80;92.10;;;;;;4196017;28;20051;-71
2021/09/20 07:11:32;;;;;;;3.53;2.72;;;33.60;92.20;;;;;;4196647;28;20040;-70
2021/09/20 07:13:36;;;;;;;4.63;2.55;;;33.70;92.50;;;;;;4196971;28;20056;-70
2021/09/20 07:15:41;;;;;;;3.15;2.60;;;33.80;92.80;;;;;;4195237;28;20506;-71
2021/09/20 07:17:45;;;;;;;2.70;2.50;;;33.90;92.50;;;;;;4195836;28;20056;-72
2021/09/20 07:19:50;;;;;;;3.05;2.53;;;33.90;92.30;;;;;;4194837;28;20209;-71
2021/09/20 07:21:54;;;;;;;4.60;2.55;;;33.80;92.50;;;;;;4195005;28;20090;-71
2021/09/20 07:23:59;;;;;;;6.65;3.05;;;33.90;92.50;;;;;;4195893;28;20226;-71
2021/09/20 07:26:03;;;;;;;4.32;2.63;;;34.00;92.40;;;;;;4195562;28;20048;-70
2021/09/20 07:28:08;;;;;;;4.53;2.55;;;34.00;92.60;;;;;;4195358;28;20040;-71
2021/09/20 07:30:17;;;;;;;3.22;2.40;;;34.10;92.40;;;;;;4178831;28;20072;-71
2021/09/20 07:32:21;;;;;;;8.20;2.58;;;34.00;91.60;;;;;;4195612;28;20040;-71
2021/09/20 07:34:26;;;;;;;4.05;2.60;;;34.00;91.10;;;;;;4195556;28;20131;-70
2021/09/20 07:36:30;;;;;;;5.28;2.70;;;33.90;91.80;;;;;;4195107;28;20098;-70
2021/09/20 07:38:35;;;;;;;3.38;2.40;;;34.00;91.80;;;;;;4195960;28;20044;-71
2021/09/20 07:40:40;;;;;;;2.85;2.53;;;34.10;92.20;;;;;;4195026;28;20518;-70
2021/09/20 07:42:45;;;;;;;4.13;2.50;;;34.10;92.50;;;;;;4196085;28;20052;-70
2021/09/20 07:44:49;;;;;;;3.20;2.55;;;34.00;92.00;;;;;;4194816;28;20042;-69
2021/09/20 07:46:54;;;;;;;2.22;1.98;;;34.00;91.50;;;;;;4194959;28;20086;-70
2021/09/20 07:48:59;;;;;;;2.65;1.80;;;34.00;91.40;;;;;;4178870;28;20518;-70
2021/09/20 07:51:04;;;;;;;4.97;2.00;;;34.00;90.50;;;;;;4194571;28;20048;-69
2021/09/20 07:53:09;;;;;;;5.53;2.63;;;34.00;90.30;;;;;;4190304;28;20040;-69
2021/09/20 07:55:14;;;;;;;2.38;1.80;;;34.00;90.60;;;;;;4163003;28;20057;-70
2021/09/20 07:57:18;;;;;;;2.50;2.30;;;34.10;91.00;;;;;;4195366;28;20536;-69
2021/09/20 07:59:23;;;;;;;2.25;2.05;;;34.10;91.10;;;;;;4194864;28;20052;-69
2021/09/20 08:01:28;;;;;;;2.83;2.17;;;34.20;91.00;;;;;;4195835;28;20488;-70
2021/09/20 08:03:33;;;;;;;2.60;2.15;;;34.10;90.20;;;;;;4193215;28;20055;-70
2021/09/20 08:05:40;;;;;;;4.20;1.90;;;34.10;90.80;;;;;;4194412;28;20045;-70
2021/09/20 08:07:45;;;;;;;3.50;2.10;;;34.10;90.20;;;;;;4193767;28;20123;-69
2021/09/20 08:09:49;;;;;;;2.30;2.08;;;34.10;90.70;;;;;;4194297;28;20102;-71
2021/09/20 08:11:54;;;;;;;3.13;2.03;;;34.20;90.20;;;;;;4194531;28;20123;-70
2021/09/20 08:13:58;;;;;;;3.03;2.13;;;34.10;90.30;;;;;;4196067;28;20078;-69
2021/09/20 08:16:03;;;;;;;3.38;2.10;;;34.20;90.40;;;;;;4196160;28;20045;-69
2021/09/20 08:18:09;;;;;;;2.72;2.20;;;34.20;90.40;;;;;;4195080;28;20044;-70
2021/09/20 08:20:14;;;;;;;3.05;2.00;;;34.30;90.90;;;;;;4178286;28;20511;-69
2021/09/20 08:22:21;;;;;;;2.50;1.73;;;34.30;91.00;;;;;;4194215;28;20442;-70
2021/09/20 08:24:26;;;;;;;2.53;2.10;;;34.30;90.80;;;;;;4194089;28;20040;-70
2021/09/20 08:26:30;;;;;;;2.50;2.20;;;34.40;90.70;;;;;;4194932;28;20033;-69
2021/09/20 08:28:36;;;;;;;3.67;2.25;;;34.30;90.60;;;;;;4195055;28;20056;-69
2021/09/20 08:30:40;;;;;;;11.65;9.15;;;34.30;90.30;;;;;;4183191;28;20103;-71
2021/09/20 08:32:45;;;;;;;8.98;6.60;;;34.30;89.40;;;;;;4194285;28;20044;-70
2021/09/20 08:34:49;;;;;;;5.55;3.47;;;34.30;90.00;;;;;;4192831;28;20455;-70
2021/09/20 08:36:54;;;;;;;3.70;2.58;;;34.20;90.40;;;;;;4171416;28;20051;-70
2021/09/20 08:38:58;;;;;;;3.65;2.20;;;34.10;90.80;;;;;;4192993;28;20041;-70
2021/09/20 08:41:03;;;;;;;3.08;2.00;;;34.10;90.90;;;;;;4192547;28;20112;-70
2021/09/20 08:43:08;;;;;;;3.42;1.95;;;34.00;91.00;;;;;;4194028;28;20043;-71
2021/09/20 08:45:18;;;;;;;3.33;2.00;;;34.00;90.70;;;;;;4191991;28;20040;-71
2021/09/20 08:47:23;;;;;;;9.13;7.22;;;34.10;90.50;;;;;;4193168;28;20041;-71
2021/09/20 08:49:28;;;;;;;5.22;3.85;;;34.10;90.20;;;;;;4176554;28;20499;-71
2021/09/20 08:51:33;;;;;;;3.00;2.35;;;34.10;90.10;;;;;;4189459;28;20091;-70
2021/09/20 08:53:40;;;;;;;5.05;3.28;;;34.10;89.70;;;;;;4194275;28;20043;-70
2021/09/20 08:55:44;;;;;;;8.65;3.20;;;34.10;90.00;;;;;;4191765;28;20048;-70
2021/09/20 08:57:49;;;;;;;3.85;2.47;;;34.10;89.90;;;;;;4193453;28;20032;-70
2021/09/20 08:59:56;;;;;;;2.55;2.05;;;34.10;90.00;;;;;;4159479;28;20108;-70
2021/09/20 09:02:01;;;;;;;3.78;2.90;;;34.10;90.00;;;;;;4159484;28;20132;-70
2021/09/20 09:04:24;;;;;;;4.32;2.58;;;34.10;89.90;;;;;;4176134;28;20124;-71
2021/09/20 09:06:30;;;;;;;3.65;3.08;;;34.10;90.20;;;;;;4193268;28;20060;-71
2021/09/20 09:08:38;;;;;;;3.53;2.63;;;34.00;90.20;;;;;;4177895;28;20402;-71
2021/09/20 09:10:43;;;;;;;5.00;3.20;;;34.10;90.30;;;;;;4160927;28;20609;-70
2021/09/20 09:12:48;;;;;;;7.43;6.22;;;34.10;90.30;;;;;;4178645;28;20096;-71
2021/09/20 09:14:55;;;;;;;31.48;24.48;;;34.00;90.30;;;;;;4158987;28;20385;-69
2021/09/20 09:17:00;;;;;;;7.25;5.40;;;34.10;90.50;;;;;;4162057;28;20053;-70
2021/09/20 09:19:12;;;;;;;7.43;5.30;;;34.00;90.40;;;;;;4130379;28;20086;-70
2021/09/20 09:21:21;;;;;;;5.38;4.60;;;34.00;90.60;;;;;;4146800;28;20077;-70
2021/09/20 09:23:25;;;;;;;3.25;2.78;;;34.00;90.80;;;;;;4142227;28;20427;-71
2021/09/20 09:25:36;;;;;;;7.00;3.17;;;33.90;91.10;;;;;;4127430;28;20050;-71
2021/09/20 09:27:40;;;;;;;3.10;1.92;;;33.90;90.80;;;;;;4153645;28;20049;-71
2021/09/20 09:29:45;;;;;;;3.53;2.42;;;33.90;90.70;;;;;;4130280;28;20111;-71
2021/09/20 09:31:54;;;;;;;3.78;2.40;;;33.90;90.80;;;;;;4113923;28;20549;-71
2021/09/20 09:33:59;;;;;;;2.92;2.20;;;33.90;90.80;;;;;;4146146;28;20543;-72
2021/09/20 09:36:04;;;;;;;4.35;2.58;;;33.90;90.90;;;;;;4143400;28;20069;-70
2021/09/20 09:38:08;;;;;;;3.58;2.70;;;33.90;91.10;;;;;;4144493;28;20045;-70
2021/09/20 09:40:13;;;;;;;4.68;2.60;;;33.90;91.20;;;;;;4130183;28;20054;-72
2021/09/20 09:42:27;;;;;;;6.15;2.33;;;33.80;91.10;;;;;;4160196;28;20060;-70
2021/09/20 09:44:33;;;;;;;2.50;2.13;;;33.80;91.00;;;;;;4146834;28;20057;-71
2021/09/20 09:46:40;;;;;;;6.57;2.42;;;33.70;91.20;;;;;;4158260;28;20058;-72
2021/09/20 09:48:45;;;;;;;5.82;2.55;;;33.70;91.30;;;;;;4162453;28;20119;-69
2021/09/20 09:50:54;;;;;;;4.63;2.85;;;33.60;92.50;;;;;;4178505;28;20036;-71
2021/09/20 09:52:59;;;;;;;5.07;2.70;;;33.50;94.00;;;;;;4185143;28;20036;-70
2021/09/20 09:55:05;;;;;;;3.97;2.60;;;33.40;94.70;;;;;;4184610;28;20123;-70
2021/09/20 09:57:22;;;;;;;5.57;3.08;;;33.30;95.40;;;;;;4196503;28;20055;-70
2021/09/20 09:59:27;;;;;;;4.68;3.25;;;33.10;96.40;;;;;;4179336;28;20049;-71
2021/09/20 10:01:32;;;;;;;4.95;3.30;;;33.00;97.00;;;;;;4197258;28;20045;-69
2021/09/20 10:03:58;;;;;;;4.63;3.08;;;32.90;97.40;;;;;;4178238;28;20534;-70
2021/09/20 10:06:03;;;;;;;3.83;3.22;;;32.90;97.50;;;;;;4194147;28;20052;-70
2021/09/20 10:08:12;;;;;;;4.72;3.03;;;32.80;97.40;;;;;;4178709;28;20078;-70
2021/09/20 10:10:18;;;;;;;6.15;3.92;;;32.80;97.50;;;;;;4193139;28;20040;-71
2021/09/20 10:12:26;;;;;;;7.15;3.28;;;32.80;97.60;;;;;;4178879;28;20091;-70
2021/09/20 10:14:31;;;;;;;5.93;3.90;;;32.80;97.70;;;;;;4196206;28;20423;-70
2021/09/20 10:16:36;;;;;;;5.55;3.40;;;32.80;97.90;;;;;;4194931;28;20057;-70
2021/09/20 10:18:42;;;;;;;5.03;3.60;;;32.70;98.00;;;;;;4194063;28;20572;-70
2021/09/20 10:20:47;;;;;;;7.15;3.72;;;32.70;98.40;;;;;;4193120;28;20507;-70
2021/09/20 10:22:52;;;;;;;6.15;3.50;;;32.60;98.60;;;;;;4194268;28;20047;-70
2021/09/20 10:24:58;;;;;;;4.47;3.50;;;32.60;98.80;;;;;;4195483;28;20083;-70
2021/09/20 10:27:03;;;;;;;6.32;3.85;;;32.50;99.40;;;;;;4195712;28;20041;-71
2021/09/20 10:29:08;;;;;;;8.27;3.92;;;32.50;99.70;;;;;;4194245;28;20040;-71
2021/09/20 10:31:13;;;;;;;11.60;4.45;;;32.50;99.90;;;;;;4195279;28;20525;-72
2021/09/20 10:33:17;;;;;;;6.25;4.00;;;32.50;99.90;;;;;;4194333;28;20059;-72
2021/09/20 10:35:35;;;;;;;5.30;3.72;;;32.10;99.90;;;;;;4195363;28;20052;-72
2021/09/20 10:37:39;;;;;;;7.88;4.05;;;31.90;99.90;;;;;;4193790;28;20036;-71
2021/09/20 10:39:57;;;;;;;6.65;4.40;;;32.00;99.90;;;;;;4194986;28;20041;-71
2021/09/20 10:42:01;;;;;;;5.43;3.83;;;31.70;99.90;;;;;;4195450;28;20036;-70
2021/09/20 10:44:10;;;;;;;8.23;5.13;;;31.50;99.90;;;;;;4194365;28;20110;-71
2021/09/20 10:46:24;;;;;;;6.10;4.90;;;31.30;99.90;;;;;;4194389;28;20048;-71
2021/09/20 10:48:51;;;;;;;6.25;4.07;;;31.30;99.90;;;;;;4193843;28;20036;-70
2021/09/20 10:51:00;;;;;;;7.78;3.60;;;31.20;99.90;;;;;;4194241;28;20075;-70
2021/09/20 10:53:34;;;;;;;3.97;2.80;;;31.00;99.90;;;;;;4193609;28;20059;-71